createdAt,value
2023-03-06T21:03:29.487Z,97756.71
2023-03-06T21:05:57.849Z,97758.27
2023-03-06T21:08:27.484Z,97759.10
2023-03-06T21:10:57.219Z,97757.05
2023-03-06T21:13:26.608Z,97754.91
2023-03-06T21:15:54.874Z,97750.97
2023-03-06T21:18:23.071Z,97741.82
2023-03-06T21:20:51.446Z,97737.23
2023-03-06T21:23:23.091Z,97732.93
2023-03-06T21:26:02.028Z,97726.92
2023-03-06T21:28:34.559Z,97727.53
2023-03-06T21:31:03.476Z,97728.06
2023-03-06T21:33:35.726Z,97727.97
2023-03-06T21:36:04.709Z,97725.51
2023-03-06T21:38:33.826Z,97726.20
2023-03-06T21:41:15.191Z,97727.49
2023-03-06T21:44:34.494Z,97728.29
2023-03-06T21:47:22.489Z,97728.05
2023-03-06T21:53:46.584Z,97726.94
2023-03-06T21:56:19.314Z,97724.56
2023-03-06T21:58:49.185Z,97724.59
2023-03-06T22:01:20.902Z,97724.27
2023-03-06T22:04:18.777Z,97729.18
2023-03-06T22:07:30.529Z,97730.73
2023-03-06T22:10:29.351Z,97727.05
2023-03-06T22:13:31.764Z,97723.81
2023-03-06T22:17:16.254Z,97720.54
2023-03-06T22:20:38.607Z,97712.39
2023-03-06T22:23:37.002Z,97704.86
2023-03-06T22:26:18.960Z,97698.41
2023-03-06T22:29:04.485Z,97692.55
2023-03-06T22:31:54.770Z,97686.34
2023-03-06T22:35:12.193Z,97686.05
2023-03-06T22:41:13.476Z,97681.95
2023-03-06T22:44:25.491Z,97688.76
2023-03-06T22:47:20.368Z,97692.86
2023-03-06T22:51:02.491Z,97694.05
2023-03-06T22:54:28.752Z,97696.89
2023-03-06T22:57:40.233Z,97702.66
2023-03-06T23:00:11.828Z,97702.24
2023-03-06T23:02:40.065Z,97698.61
2023-03-06T23:05:08.765Z,97695.85
2023-03-06T23:07:37.386Z,97688.50
2023-03-06T23:10:07.037Z,97684.88
2023-03-06T23:12:54.650Z,97679.84
2023-03-06T23:15:41.853Z,97679.49
2023-03-06T23:18:30.147Z,97681.99
2023-03-06T23:21:19.000Z,97685.31
2023-03-06T23:24:07.051Z,97680.75
2023-03-06T23:26:35.905Z,97679.32
2023-03-06T23:29:04.460Z,97680.42
2023-03-06T23:31:32.692Z,97681.84
2023-03-06T23:34:02.536Z,97685.80
2023-03-06T23:36:31.705Z,97685.42
2023-03-06T23:38:59.895Z,97679.78
2023-03-06T23:41:28.910Z,97676.59
2023-03-06T23:43:58.832Z,97672.95
2023-03-06T23:46:27.202Z,97666.63
2023-03-06T23:48:55.536Z,97659.20
2023-03-06T23:51:23.845Z,97655.02
2023-03-06T23:53:58.266Z,97657.89
2023-03-06T23:56:28.503Z,97656.84
2023-03-06T23:58:56.865Z,97650.61
